createdAt,value
2019-01-10T00:00:31.053Z,-0.50
2019-01-10T00:02:59.890Z,-0.80
2019-01-10T00:05:28.817Z,-1.00
2019-01-10T00:07:57.593Z,-1.30
2019-01-10T00:10:26.469Z,-1.50
2019-01-10T00:12:55.291Z,-1.50
2019-01-10T00:15:24.073Z,-1.70
2019-01-10T00:17:52.847Z,-1.70
2019-01-10T00:20:21.674Z,-1.90
2019-01-10T00:22:50.516Z,-1.90
2019-01-10T00:25:19.296Z,-1.90
2019-01-10T00:27:48.069Z,-1.90
2019-01-10T00:30:18.319Z,-1.80
2019-01-10T00:32:47.270Z,-1.80
2019-01-10T00:35:16.296Z,-1.70
2019-01-10T00:37:45.214Z,-1.50
2019-01-10T00:40:15.333Z,-1.50
2019-01-10T00:42:49.715Z,-1.40
2019-01-10T00:45:16.112Z,-1.30
2019-01-10T00:47:45.065Z,-1.30
2019-01-10T00:50:19.462Z,-1.30
2019-01-10T00:52:48.837Z,-1.30
2019-01-10T00:55:17.998Z,-1.20
2019-01-10T00:57:46.933Z,-1.20
2019-01-10T01:00:19.206Z,-1.10
2019-01-10T01:02:48.062Z,-1.00
2019-01-10T01:05:17.281Z,-0.90
2019-01-10T01:07:46.346Z,-0.90
2019-01-10T01:10:20.293Z,-0.80
2019-01-10T01:12:57.966Z,-0.80
2019-01-10T01:15:19.900Z,-0.70
2019-01-10T01:17:48.859Z,-0.70
2019-01-10T01:20:19.238Z,-0.70
2019-01-10T01:22:48.120Z,-0.70
2019-01-10T01:25:17.187Z,-0.70
2019-01-10T01:27:46.186Z,-0.70
2019-01-10T01:30:17.363Z,-0.70
2019-01-10T01:32:46.235Z,-0.60
2019-01-10T01:35:15.986Z,-0.60
2019-01-10T01:37:44.909Z,-0.60
2019-01-10T01:40:15.829Z,-0.60
2019-01-10T01:42:44.887Z,-0.50
2019-01-10T01:45:14.985Z,-0.50
2019-01-10T01:47:43.914Z,-0.50
2019-01-10T01:50:15.782Z,-0.50
2019-01-10T01:52:44.681Z,-0.50
2019-01-10T01:55:13.598Z,-0.50
2019-01-10T01:57:42.534Z,-0.40
2019-01-10T02:00:14.315Z,-0.40
2019-01-10T02:02:43.242Z,-0.40
2019-01-10T02:05:12.228Z,-0.30
2019-01-10T02:07:41.178Z,-0.30
2019-01-10T02:10:13.623Z,-0.20
2019-01-10T02:12:42.549Z,-0.20
2019-01-10T02:15:11.456Z,-0.20
2019-01-10T02:17:48.524Z,-0.20
2019-01-10T02:20:11.017Z,-0.20
2019-01-10T02:22:40.245Z,-0.20
2019-01-10T02:25:09.748Z,-0.20
2019-01-10T02:27:38.985Z,-0.10
2019-01-10T02:30:10.795Z,-0.20
2019-01-10T02:32:39.709Z,-0.20
2019-01-10T02:35:09.439Z,-0.10
2019-01-10T02:37:38.212Z,-0.10
2019-01-10T02:40:07.382Z,-0.10
2019-01-10T02:42:36.274Z,-0.10
2019-01-10T02:45:05.746Z,-0.10
2019-01-10T02:47:34.524Z,-0.10
2019-01-10T02:50:03.666Z,-0.10
2019-01-10T02:52:32.453Z,-0.10
2019-01-10T02:55:01.247Z,-0.10
2019-01-10T02:57:30.010Z,-0.10
2019-01-10T02:59:58.805Z,-0.10
2019-01-10T03:02:27.855Z,-0.10
2019-01-10T03:04:56.707Z,-0.10
2019-01-10T03:07:25.478Z,-0.10
2019-01-10T03:09:54.397Z,-0.10
2019-01-10T03:12:23.170Z,-0.10
2019-01-10T03:14:52.025Z,-0.10
2019-01-10T03:17:21.093Z,-0.10
2019-01-10T03:19:49.943Z,-0.10
2019-01-10T03:22:18.731Z,-0.10
2019-01-10T03:24:47.508Z,-0.10
2019-01-10T03:27:16.360Z,-0.10
2019-01-10T03:29:45.486Z,-0.10
2019-01-10T03:32:14.255Z,-0.10
2019-01-10T03:34:43.505Z,-0.10
2019-01-10T03:37:12.565Z,-0.10
2019-01-10T03:39:41.356Z,-0.10
2019-01-10T03:42:10.480Z,-0.10
2019-01-10T03:44:39.331Z,-0.10
2019-01-10T03:47:08.234Z,-0.10
2019-01-10T03:49:37.052Z,-0.10
2019-01-10T03:52:05.979Z,-0.10
2019-01-10T03:54:34.825Z,-0.10
2019-01-10T03:57:03.745Z,-0.10
2019-01-10T03:59:32.589Z,-0.10
2019-01-10T04:02:01.429Z,-0.10
2019-01-10T04:04:30.219Z,-0.10
2019-01-10T04:06:58.994Z,-0.10
2019-01-10T04:09:28.191Z,-0.10
2019-01-10T04:11:56.963Z,-0.10
2019-01-10T04:14:25.759Z,0.00
2019-01-10T04:16:54.741Z,-0.10
2019-01-10T04:19:23.531Z,-0.10
2019-01-10T04:21:52.316Z,0.00
2019-01-10T04:24:21.078Z,0.00
2019-01-10T04:26:49.847Z,-0.10
2019-01-10T04:29:18.632Z,-0.10
2019-01-10T04:31:47.413Z,-0.10
2019-01-10T04:34:16.535Z,-0.10
2019-01-10T04:36:45.325Z,-0.10
2019-01-10T04:39:14.255Z,-0.10
2019-01-10T04:41:43.131Z,-0.10
2019-01-10T04:44:11.914Z,-0.10
2019-01-10T04:46:40.959Z,-0.10
2019-01-10T04:49:10.309Z,-0.20
2019-01-10T04:51:39.153Z,-0.20
2019-01-10T04:54:08.217Z,-0.20
2019-01-10T04:56:36.990Z,-0.20
2019-01-10T04:59:05.783Z,-0.20
2019-01-10T05:01:34.566Z,-0.20
2019-01-10T05:04:03.413Z,-0.30
2019-01-10T05:06:32.263Z,-0.20
2019-01-10T05:09:01.110Z,-0.20
2019-01-10T05:11:29.970Z,-0.30
2019-01-10T05:13:58.738Z,-0.20
2019-01-10T05:16:27.519Z,-0.20
2019-01-10T05:18:56.559Z,-0.20
2019-01-10T05:21:25.349Z,-0.20
2019-01-10T05:23:54.733Z,-0.20
2019-01-10T05:26:23.595Z,-0.20
2019-01-10T05:28:52.365Z,-0.20
2019-01-10T05:31:21.411Z,-0.20
2019-01-10T05:33:50.429Z,-0.20
2019-01-10T05:36:19.291Z,-0.30
2019-01-10T05:38:48.137Z,-0.30
2019-01-10T05:41:17.923Z,-0.30
2019-01-10T05:43:46.772Z,-0.30
2019-01-10T05:46:15.623Z,-0.20
2019-01-10T05:48:47.161Z,-0.20
2019-01-10T05:51:15.250Z,-0.20
2019-01-10T05:53:44.153Z,-0.20
2019-01-10T05:56:15.617Z,-0.20
2019-01-10T05:58:44.588Z,-0.20
2019-01-10T06:01:13.662Z,-0.20
2019-01-10T06:03:42.866Z,-0.20
2019-01-10T06:06:12.254Z,-0.20
2019-01-10T06:08:41.089Z,-0.20
2019-01-10T06:11:10.045Z,-0.20
2019-01-10T06:13:39.201Z,-0.20
2019-01-10T06:16:08.122Z,-0.20
2019-01-10T06:18:36.983Z,-0.20
2019-01-10T06:21:05.861Z,-0.20
2019-01-10T06:23:35.046Z,-0.20
2019-01-10T06:26:04.034Z,-0.20
2019-01-10T06:28:32.916Z,-0.20
2019-01-10T06:31:01.778Z,-0.20
2019-01-10T06:33:30.890Z,-0.20
2019-01-10T06:35:59.699Z,-0.20
2019-01-10T06:38:28.706Z,-0.20
2019-01-10T06:40:57.505Z,-0.20
2019-01-10T06:43:27.274Z,-0.20
2019-01-10T06:45:56.139Z,-0.20
2019-01-10T06:48:25.148Z,-0.20
2019-01-10T06:50:54.060Z,-0.20
2019-01-10T06:53:23.315Z,-0.20
2019-01-10T06:55:52.525Z,-0.20
2019-01-10T06:58:21.534Z,-0.20
2019-01-10T07:00:50.497Z,-0.20
2019-01-10T07:03:19.708Z,-0.20
2019-01-10T07:05:48.617Z,-0.20
2019-01-10T07:08:17.422Z,-0.20
2019-01-10T07:10:46.438Z,-0.20
2019-01-10T07:13:15.394Z,-0.20
2019-01-10T07:15:44.556Z,-0.20
2019-01-10T07:18:13.415Z,-0.20
2019-01-10T07:20:42.378Z,-0.20
2019-01-10T07:23:11.286Z,-0.20
2019-01-10T07:25:40.197Z,-0.20
2019-01-10T07:28:26.797Z,-0.20
2019-01-10T07:30:57.268Z,-0.20
2019-01-10T07:33:26.226Z,-0.30
2019-01-10T07:35:59.137Z,-0.30
2019-01-10T07:38:28.046Z,-0.30
2019-01-10T07:40:57.160Z,-0.30
2019-01-10T07:43:27.415Z,-0.30
2019-01-10T07:45:57.177Z,-0.30
2019-01-10T07:48:26.093Z,-0.30
2019-01-10T07:50:55.067Z,-0.30
2019-01-10T07:53:23.954Z,-0.30
2019-01-10T07:55:53.218Z,-0.30
2019-01-10T07:58:22.126Z,-0.20
2019-01-10T08:00:51.038Z,-0.20
2019-01-10T08:03:20.395Z,-0.20
2019-01-10T08:05:49.356Z,-0.20
2019-01-10T08:08:18.301Z,-0.20
2019-01-10T08:10:47.248Z,-0.20
2019-01-10T08:13:16.285Z,-0.20
2019-01-10T08:15:45.045Z,-0.20
2019-01-10T08:18:13.906Z,-0.20
2019-01-10T08:20:42.825Z,-0.20
2019-01-10T08:23:11.682Z,-0.10
2019-01-10T08:25:40.539Z,-0.20
2019-01-10T08:28:09.817Z,-0.20
2019-01-10T08:30:38.872Z,-0.10
2019-01-10T08:33:07.802Z,-0.10
2019-01-10T08:35:36.766Z,-0.10
2019-01-10T08:38:05.691Z,-0.10
2019-01-10T08:40:34.528Z,-0.10
2019-01-10T08:43:03.725Z,-0.10
2019-01-10T08:45:32.668Z,-0.10
2019-01-10T08:48:01.530Z,-0.10
2019-01-10T08:50:30.490Z,-0.10
2019-01-10T08:52:59.549Z,-0.10
2019-01-10T08:55:28.562Z,0.00
2019-01-10T08:57:57.573Z,0.00
2019-01-10T09:00:26.745Z,0.00
2019-01-10T09:02:55.896Z,0.00
2019-01-10T09:05:24.952Z,0.00
2019-01-10T09:07:54.316Z,0.00
2019-01-10T09:10:31.470Z,0.10
2019-01-10T09:13:00.438Z,0.10
2019-01-10T09:15:34.713Z,0.10
2019-01-10T09:18:00.353Z,0.20
2019-01-10T09:20:29.265Z,0.20
2019-01-10T09:22:58.421Z,0.20
2019-01-10T09:25:27.332Z,0.20
2019-01-10T09:27:56.293Z,0.20
2019-01-10T09:30:25.354Z,0.20
2019-01-10T09:32:54.697Z,0.30
2019-01-10T09:35:23.788Z,0.30
2019-01-10T09:37:52.904Z,0.30
2019-01-10T09:40:23.190Z,0.30
2019-01-10T09:42:52.127Z,0.30
2019-01-10T09:45:23.193Z,0.30
2019-01-10T09:47:52.045Z,0.30
2019-01-10T09:50:21.733Z,0.30
2019-01-10T09:52:50.842Z,0.30
2019-01-10T09:55:19.773Z,0.30
2019-01-10T09:57:48.763Z,0.40
2019-01-10T10:00:27.373Z,0.40
2019-01-10T10:02:56.438Z,0.40
2019-01-10T10:05:25.474Z,0.40
2019-01-10T10:07:54.403Z,0.40
2019-01-10T10:10:23.413Z,0.40
2019-01-10T10:12:52.404Z,0.40
2019-01-10T10:15:21.988Z,0.40
2019-01-10T10:17:51.498Z,0.40
2019-01-10T10:20:24.909Z,0.40
2019-01-10T10:22:54.600Z,0.40
2019-01-10T10:25:25.848Z,0.40
2019-01-10T10:27:54.336Z,0.50
2019-01-10T10:30:23.294Z,0.50
2019-01-10T10:32:52.357Z,0.60
2019-01-10T10:35:22.467Z,0.60
2019-01-10T10:37:51.524Z,0.60
2019-01-10T10:40:21.882Z,0.50
2019-01-10T10:42:51.846Z,0.60
2019-01-10T10:45:21.255Z,0.60
2019-01-10T10:47:50.304Z,0.70
2019-01-10T10:50:22.174Z,0.70
2019-01-10T10:52:51.190Z,0.60
2019-01-10T10:55:20.246Z,0.80
2019-01-10T10:57:49.317Z,0.80
2019-01-10T11:00:21.465Z,0.80
2019-01-10T11:02:50.554Z,0.90
2019-01-10T11:05:19.485Z,0.90
2019-01-10T11:07:48.497Z,1.00
2019-01-10T11:10:18.501Z,1.00
2019-01-10T11:12:48.219Z,1.10
2019-01-10T11:15:17.277Z,1.10
2019-01-10T11:17:46.905Z,1.10
2019-01-10T11:20:18.102Z,1.00
2019-01-10T11:22:47.114Z,1.10
2019-01-10T11:25:18.437Z,1.10
2019-01-10T11:27:47.446Z,1.10
2019-01-10T11:30:17.835Z,1.20
2019-01-10T11:32:46.846Z,1.40
2019-01-10T11:35:16.054Z,1.60
2019-01-10T11:37:45.044Z,1.70
2019-01-10T11:40:16.537Z,1.60
2019-01-10T11:42:45.649Z,1.80
2019-01-10T11:45:16.594Z,2.00
2019-01-10T11:47:45.557Z,2.00
2019-01-10T11:50:15.062Z,2.00
2019-01-10T11:52:44.177Z,2.10
2019-01-10T11:55:13.096Z,2.10
2019-01-10T11:57:42.100Z,1.90
2019-01-10T12:00:20.592Z,1.80
2019-01-10T12:02:49.517Z,1.80
2019-01-10T12:05:18.474Z,1.70
2019-01-10T12:07:48.036Z,1.50
2019-01-10T12:10:16.952Z,1.60
2019-01-10T12:12:45.849Z,1.50
2019-01-10T12:15:15.117Z,1.40
2019-01-10T12:17:44.211Z,1.40
2019-01-10T12:20:14.057Z,1.50
2019-01-10T12:22:43.062Z,1.50
2019-01-10T12:25:13.191Z,1.50
2019-01-10T12:27:42.194Z,1.40
2019-01-10T12:30:17.194Z,1.30
2019-01-10T12:32:46.086Z,1.30
2019-01-10T12:35:15.096Z,1.30
2019-01-10T12:37:44.060Z,1.40
2019-01-10T12:40:13.581Z,1.40
2019-01-10T12:42:42.626Z,1.50
2019-01-10T12:45:12.637Z,1.40
2019-01-10T12:47:41.599Z,1.40
2019-01-10T12:50:31.129Z,1.30
2019-01-10T12:53:01.468Z,1.30
2019-01-10T12:55:30.479Z,1.40
2019-01-10T12:57:59.440Z,1.40
2019-01-10T13:00:28.555Z,1.40
2019-01-10T13:02:57.475Z,1.50
2019-01-10T13:05:26.654Z,1.60
2019-01-10T13:08:03.438Z,1.60
2019-01-10T13:10:26.294Z,1.60
2019-01-10T13:12:55.209Z,1.70
2019-01-10T13:15:26.182Z,1.60
2019-01-10T13:17:55.106Z,1.60
2019-01-10T13:20:24.338Z,1.60
2019-01-10T13:22:53.542Z,1.50
2019-01-10T13:25:22.921Z,1.40
2019-01-10T13:27:52.814Z,1.50
2019-01-10T13:30:23.521Z,1.60
2019-01-10T13:32:52.931Z,1.60
2019-01-10T13:35:21.893Z,1.70
2019-01-10T13:37:50.910Z,1.70
2019-01-10T13:40:20.217Z,1.70
2019-01-10T13:42:49.330Z,1.90
2019-01-10T13:45:18.741Z,1.90
2019-01-10T13:47:49.144Z,1.80
2019-01-10T13:50:27.155Z,1.80
2019-01-10T13:52:56.164Z,1.80
2019-01-10T13:55:25.137Z,1.70
2019-01-10T13:57:54.132Z,1.60
2019-01-10T14:00:25.142Z,1.60
2019-01-10T14:02:54.191Z,1.60
2019-01-10T14:05:23.163Z,1.50
2019-01-10T14:07:52.124Z,1.40
2019-01-10T14:10:21.482Z,1.20
2019-01-10T14:12:50.792Z,1.10
2019-01-10T14:15:28.454Z,1.10
2019-01-10T14:17:57.372Z,1.00
2019-01-10T14:20:26.323Z,1.00
2019-01-10T14:22:55.275Z,1.00
2019-01-10T14:25:24.625Z,0.90
2019-01-10T14:27:59.366Z,0.80
2019-01-10T14:30:31.282Z,0.80
2019-01-10T14:33:00.326Z,0.70
2019-01-10T14:35:29.437Z,0.60
2019-01-10T14:37:58.356Z,0.50
2019-01-10T14:40:27.405Z,0.40
2019-01-10T14:42:56.676Z,0.30
2019-01-10T14:45:25.741Z,0.20
2019-01-10T14:47:54.786Z,0.20
2019-01-10T14:50:24.089Z,0.10
2019-01-10T14:52:53.053Z,0.10
2019-01-10T14:55:22.014Z,0.10
2019-01-10T14:57:51.072Z,0.00
2019-01-10T15:00:22.235Z,0.00
2019-01-10T15:02:51.496Z,0.00
2019-01-10T15:05:20.953Z,0.00
2019-01-10T15:07:50.015Z,-0.10
2019-01-10T15:10:18.974Z,-0.10
2019-01-10T15:12:48.387Z,-0.20
2019-01-10T15:15:21.786Z,-0.20
2019-01-10T15:17:51.054Z,-0.20
2019-01-10T15:20:23.016Z,-0.30
2019-01-10T15:22:52.054Z,-0.40
2019-01-10T15:25:21.034Z,-0.40
2019-01-10T15:27:49.951Z,-0.50
2019-01-10T15:30:20.924Z,-0.50
2019-01-10T15:32:50.446Z,-0.60
2019-01-10T15:35:19.821Z,-0.70
2019-01-10T15:37:48.932Z,-0.70
2019-01-10T15:40:23.386Z,-0.70
2019-01-10T15:42:52.399Z,-0.80
2019-01-10T15:45:21.414Z,-0.80
2019-01-10T15:47:50.592Z,-0.80
2019-01-10T15:50:19.682Z,-0.90
2019-01-10T15:52:48.724Z,-0.90
2019-01-10T15:55:18.057Z,-0.90
2019-01-10T15:57:47.054Z,-0.90
2019-01-10T16:00:21.083Z,-0.80
2019-01-10T16:02:50.473Z,-0.90
2019-01-10T16:05:19.802Z,-0.90
2019-01-10T16:10:09.769Z,-0.90
2019-01-10T16:12:38.642Z,-0.90
2019-01-10T16:15:09.538Z,-0.90
2019-01-10T16:17:38.755Z,-0.80
2019-01-10T16:20:08.409Z,-0.80
2019-01-10T16:22:37.344Z,-0.90
2019-01-10T16:25:07.154Z,-0.90
2019-01-10T16:27:35.966Z,-0.90
2019-01-10T16:30:07.593Z,-0.90
2019-01-10T16:32:36.381Z,-0.90
2019-01-10T16:35:06.733Z,-0.90
2019-01-10T16:37:35.531Z,-0.90
2019-01-10T16:40:05.712Z,-0.90
2019-01-10T16:42:34.615Z,-0.90
2019-01-10T16:45:05.206Z,-0.90
2019-01-10T16:47:34.126Z,-0.90
2019-01-10T16:50:02.917Z,-0.90
2019-01-10T16:52:31.768Z,-0.90
2019-01-10T16:55:00.558Z,-0.90
2019-01-10T16:57:29.672Z,-0.90
2019-01-10T16:59:58.516Z,-0.90
2019-01-10T17:02:27.552Z,-0.90
2019-01-10T17:04:56.339Z,-0.90
2019-01-10T17:07:26.271Z,-0.90
2019-01-10T17:09:55.270Z,-0.90
2019-01-10T17:12:24.129Z,-1.00
2019-01-10T17:14:52.901Z,-1.00
2019-01-10T17:17:21.678Z,-1.00
2019-01-10T17:19:50.465Z,-1.10
2019-01-10T17:22:19.308Z,-1.20
2019-01-10T17:24:48.105Z,-1.30
2019-01-10T17:27:16.872Z,-1.40
2019-01-10T17:29:45.706Z,-1.50
2019-01-10T17:32:14.558Z,-1.60
2019-01-10T17:34:43.413Z,-1.70
2019-01-10T17:37:12.191Z,-1.80
2019-01-10T17:39:41.234Z,-1.80
2019-01-10T17:42:10.103Z,-1.80
2019-01-10T17:44:39.207Z,-1.80
2019-01-10T17:47:07.996Z,-1.80
2019-01-10T17:49:38.113Z,-1.90
2019-01-10T17:52:07.144Z,-2.00
2019-01-10T17:54:36.014Z,-2.20
2019-01-10T17:57:04.793Z,-2.20
2019-01-10T17:59:33.920Z,-2.20
2019-01-10T18:02:02.982Z,-2.30
2019-01-10T18:04:32.282Z,-2.40
2019-01-10T18:07:01.268Z,-2.50
2019-01-10T18:09:30.097Z,-2.50
2019-01-10T18:11:59.117Z,-2.60
2019-01-10T18:14:27.930Z,-2.60
2019-01-10T18:16:56.873Z,-2.70
2019-01-10T18:19:26.263Z,-2.80
2019-01-10T18:21:55.157Z,-2.80
2019-01-10T18:24:24.402Z,-2.70
2019-01-10T18:26:53.597Z,-2.60
2019-01-10T18:29:22.534Z,-2.70
2019-01-10T18:31:51.580Z,-2.70
2019-01-10T18:34:20.384Z,-2.70
2019-01-10T18:36:49.165Z,-2.70
2019-01-10T18:39:18.181Z,-2.60
2019-01-10T18:41:47.258Z,-2.60
2019-01-10T18:44:16.038Z,-2.50
2019-01-10T18:46:45.150Z,-2.40
2019-01-10T18:49:13.974Z,-2.30
2019-01-10T18:51:42.954Z,-2.30
2019-01-10T18:54:11.927Z,-2.20
2019-01-10T18:56:40.803Z,-2.10
2019-01-10T18:59:09.730Z,-2.10
2019-01-10T19:01:39.026Z,-2.10
2019-01-10T19:04:07.848Z,-2.10
2019-01-10T19:06:36.708Z,-2.10
2019-01-10T19:09:08.311Z,-2.10
2019-01-10T19:11:37.436Z,-2.00
2019-01-10T19:14:06.720Z,-2.00
2019-01-10T19:16:35.580Z,-2.00
2019-01-10T19:19:04.482Z,-2.00
2019-01-10T19:21:33.367Z,-2.00
2019-01-10T19:24:02.135Z,-2.00
2019-01-10T19:26:31.621Z,-2.00
2019-01-10T19:29:00.682Z,-2.00
2019-01-10T19:31:29.501Z,-2.00
2019-01-10T19:33:58.482Z,-2.00
2019-01-10T19:36:27.403Z,-2.00
2019-01-10T19:38:56.242Z,-2.00
2019-01-10T19:41:25.285Z,-2.00
2019-01-10T19:43:54.154Z,-2.00
2019-01-10T19:46:23.102Z,-2.00
2019-01-10T19:48:52.429Z,-2.00
2019-01-10T19:51:21.906Z,-2.00
2019-01-10T19:53:50.808Z,-2.00
2019-01-10T19:56:19.784Z,-2.10
2019-01-10T19:58:48.650Z,-2.10
2019-01-10T20:01:17.574Z,-2.10
2019-01-10T20:03:46.439Z,-2.10
2019-01-10T20:06:15.397Z,-2.20
2019-01-10T20:08:44.993Z,-2.30
2019-01-10T20:11:13.935Z,-2.30
2019-01-10T20:13:42.910Z,-2.30
2019-01-10T20:16:12.117Z,-2.20
2019-01-10T20:18:41.274Z,-2.20
2019-01-10T20:21:10.150Z,-2.10
2019-01-10T20:23:39.038Z,-2.10
2019-01-10T20:26:08.033Z,-2.00
2019-01-10T20:28:37.045Z,-1.90
2019-01-10T20:31:06.181Z,-1.90
2019-01-10T20:33:35.693Z,-1.80
2019-01-10T20:36:04.782Z,-1.80
2019-01-10T20:38:33.737Z,-1.70
2019-01-10T20:41:03.016Z,-1.70
2019-01-10T20:43:32.018Z,-1.60
2019-01-10T20:46:01.038Z,-1.60
2019-01-10T20:48:29.966Z,-1.60
2019-01-10T20:50:59.064Z,-1.50
2019-01-10T20:53:28.252Z,-1.50
2019-01-10T20:55:57.101Z,-1.50
2019-01-10T20:58:25.901Z,-1.50
2019-01-10T21:00:54.764Z,-1.40
2019-01-10T21:03:23.553Z,-1.40
2019-01-10T21:05:52.317Z,-1.40
2019-01-10T21:08:21.264Z,-1.30
2019-01-10T21:10:50.237Z,-1.30
2019-01-10T21:13:19.050Z,-1.30
2019-01-10T21:15:48.069Z,-1.30
2019-01-10T21:18:17.510Z,-1.30
2019-01-10T21:20:46.454Z,-1.20
2019-01-10T21:23:15.256Z,-1.20
2019-01-10T21:25:44.086Z,-1.20
2019-01-10T21:28:12.978Z,-1.10
2019-01-10T21:30:42.125Z,-1.10
2019-01-10T21:33:10.941Z,-1.10
2019-01-10T21:35:39.730Z,-1.00
2019-01-10T21:38:08.830Z,-1.00
2019-01-10T21:40:37.901Z,-1.00
2019-01-10T21:43:06.913Z,-1.00
2019-01-10T21:45:36.044Z,-0.20
2019-01-10T21:48:05.142Z,-0.10
2019-01-10T21:50:34.011Z,-0.10
2019-01-10T21:53:04.161Z,-0.10
2019-01-10T21:55:32.950Z,-0.10
2019-01-10T21:58:01.817Z,-0.10
2019-01-10T22:00:31.975Z,-0.10
2019-01-10T22:03:02.498Z,-0.10
2019-01-10T22:05:31.443Z,-0.10
2019-01-10T22:08:01.562Z,-0.20
2019-01-10T22:10:31.802Z,-0.30
2019-01-10T22:13:00.581Z,-0.30
2019-01-10T22:15:29.537Z,-0.30
2019-01-10T22:17:58.688Z,-0.40
2019-01-10T22:20:27.555Z,-0.40
2019-01-10T22:22:56.482Z,-0.40
2019-01-10T22:25:25.417Z,-0.40
2019-01-10T22:27:55.258Z,-0.30
2019-01-10T22:30:24.046Z,-0.40
2019-01-10T22:32:52.983Z,-0.40
2019-01-10T22:35:22.946Z,-0.40
2019-01-10T22:37:52.328Z,-0.40
2019-01-10T22:40:22.664Z,-0.40
2019-01-10T22:42:51.595Z,-0.40
2019-01-10T22:45:20.525Z,-0.40
2019-01-10T22:47:49.379Z,-0.40
2019-01-10T22:50:20.076Z,-0.40
2019-01-10T22:52:48.966Z,-0.40
2019-01-10T22:55:18.232Z,-0.40
2019-01-10T22:57:47.086Z,-0.40
2019-01-10T23:00:38.529Z,-0.40
2019-01-10T23:03:07.547Z,-0.40
2019-01-10T23:05:41.264Z,-0.40
2019-01-10T23:08:10.370Z,-0.40
2019-01-10T23:10:39.297Z,-0.40
2019-01-10T23:13:08.228Z,-0.50
2019-01-10T23:15:37.098Z,-0.50
2019-01-10T23:18:06.697Z,-0.50
2019-01-10T23:20:35.685Z,-0.50
2019-01-10T23:23:07.293Z,-0.50
2019-01-10T23:25:36.350Z,-0.50
2019-01-10T23:28:05.689Z,-0.50
2019-01-10T23:30:52.297Z,-0.50
2019-01-10T23:33:21.237Z,-0.50
2019-01-10T23:35:52.000Z,-0.50
2019-01-10T23:38:24.781Z,-0.40
2019-01-10T23:40:53.575Z,-0.40
2019-01-10T23:43:22.585Z,-0.40
2019-01-10T23:45:51.517Z,-0.40
2019-01-10T23:48:20.293Z,-0.40
2019-01-10T23:50:49.485Z,-0.40
2019-01-10T23:53:18.337Z,-0.40
2019-01-10T23:55:47.128Z,-0.40
2019-01-10T23:58:16.078Z,-0.40
